sensor_id;sensor_type;location;lat;lon;timestamp;temperature;humidity
4749;DHT22;2388;53.582;9.962;2022-09-13T00:00:49;17.80;99.90
4749;DHT22;2388;53.582;9.962;2022-09-13T00:03:15;17.80;99.90
4749;DHT22;2388;53.582;9.962;2022-09-13T00:05:41;17.80;99.90
4749;DHT22;2388;53.582;9.962;2022-09-13T00:08:07;17.80;99.90
4749;DHT22;2388;53.582;9.962;2022-09-13T00:10:34;17.80;99.90
4749;DHT22;2388;53.582;9.962;2022-09-13T00:13:00;17.80;99.90
4749;DHT22;2388;53.582;9.962;2022-09-13T00:15:26;17.80;99.90
4749;DHT22;2388;53.582;9.962;2022-09-13T00:17:52;17.80;99.90
4749;DHT22;2388;53.582;9.962;2022-09-13T00:20:18;17.80;99.90
4749;DHT22;2388;53.582;9.962;2022-09-13T00:22:43;17.80;99.90
4749;DHT22;2388;53.582;9.962;2022-09-13T00:25:09;17.80;99.90
4749;DHT22;2388;53.582;9.962;2022-09-13T00:27:35;17.80;99.90
4749;DHT22;2388;53.582;9.962;2022-09-13T00:30:04;17.80;99.90
4749;DHT22;2388;53.582;9.962;2022-09-13T00:32:30;17.80;99.90
4749;DHT22;2388;53.582;9.962;2022-09-13T00:34:56;17.70;99.90
4749;DHT22;2388;53.582;9.962;2022-09-13T00:37:21;17.80;99.90
4749;DHT22;2388;53.582;9.962;2022-09-13T00:39:47;17.80;99.90
4749;DHT22;2388;53.582;9.962;2022-09-13T00:42:12;17.70;99.90
4749;DHT22;2388;53.582;9.962;2022-09-13T00:52:48;17.50;99.90
4749;DHT22;2388;53.582;9.962;2022-09-13T00:55:21;17.50;99.90
4749;DHT22;2388;53.582;9.962;2022-09-13T00:57:50;17.50;99.90
4749;DHT22;2388;53.582;9.962;2022-09-13T01:00:17;17.40;99.90
4749;DHT22;2388;53.582;9.962;2022-09-13T01:02:57;17.40;99.90
4749;DHT22;2388;53.582;9.962;2022-09-13T01:05:28;17.30;99.90
4749;DHT22;2388;53.582;9.962;2022-09-13T01:07:55;17.30;99.90
4749;DHT22;2388;53.582;9.962;2022-09-13T01:10:21;17.30;99.90
4749;DHT22;2388;53.582;9.962;2022-09-13T01:12:58;17.30;99.90
4749;DHT22;2388;53.582;9.962;2022-09-13T01:15:25;17.30;99.90
4749;DHT22;2388;53.582;9.962;2022-09-13T01:17:51;17.30;99.90
4749;DHT22;2388;53.582;9.962;2022-09-13T01:20:17;17.30;99.90
4749;DHT22;2388;53.582;9.962;2022-09-13T01:32:00;17.10;99.90
4749;DHT22;2388;53.582;9.962;2022-09-13T01:37:50;17.00;99.90
4749;DHT22;2388;53.582;9.962;2022-09-13T01:40:47;17.00;99.90
4749;DHT22;2388;53.582;9.962;2022-09-13T01:43:24;17.00;99.90
4749;DHT22;2388;53.582;9.962;2022-09-13T01:48:54;17.00;99.90
4749;DHT22;2388;53.582;9.962;2022-09-13T01:51:37;17.00;99.90
4749;DHT22;2388;53.582;9.962;2022-09-13T01:54:14;17.00;99.90
4749;DHT22;2388;53.582;9.962;2022-09-13T01:59:37;17.00;99.90
4749;DHT22;2388;53.582;9.962;2022-09-13T02:02:29;17.00;99.90
4749;DHT22;2388;53.582;9.962;2022-09-13T02:05:18;17.00;99.90
4749;DHT22;2388;53.582;9.962;2022-09-13T02:07:52;17.00;99.90
4749;DHT22;2388;53.582;9.962;2022-09-13T02:10:30;17.00;99.90
4749;DHT22;2388;53.582;9.962;2022-09-13T02:12:58;17.00;99.90
4749;DHT22;2388;53.582;9.962;2022-09-13T02:15:37;17.00;99.90
4749;DHT22;2388;53.582;9.962;2022-09-13T02:18:08;17.00;99.90
4749;DHT22;2388;53.582;9.962;2022-09-13T02:20:42;17.00;99.90
4749;DHT22;2388;53.582;9.962;2022-09-13T02:23:13;17.00;99.90
4749;DHT22;2388;53.582;9.962;2022-09-13T02:25:40;17.00;99.90
4749;DHT22;2388;53.582;9.962;2022-09-13T02:28:10;17.00;99.90
4749;DHT22;2388;53.582;9.962;2022-09-13T02:30:43;17.00;99.90
4749;DHT22;2388;53.582;9.962;2022-09-13T02:35:45;17.00;99.90
4749;DHT22;2388;53.582;9.962;2022-09-13T02:38:20;17.00;99.90
4749;DHT22;2388;53.582;9.962;2022-09-13T02:40:54;17.00;99.90
4749;DHT22;2388;53.582;9.962;2022-09-13T02:43:44;17.00;99.90
4749;DHT22;2388;53.582;9.962;2022-09-13T02:46:29;17.00;99.90
4749;DHT22;2388;53.582;9.962;2022-09-13T02:52:09;17.00;99.90
4749;DHT22;2388;53.582;9.962;2022-09-13T02:57:21;17.00;99.90
4749;DHT22;2388;53.582;9.962;2022-09-13T02:59:48;17.00;99.90
4749;DHT22;2388;53.582;9.962;2022-09-13T03:02:16;17.00;99.90
4749;DHT22;2388;53.582;9.962;2022-09-13T03:04:42;17.00;99.90
4749;DHT22;2388;53.582;9.962;2022-09-13T03:07:11;17.00;99.90
4749;DHT22;2388;53.582;9.962;2022-09-13T03:09:56;16.90;99.90
4749;DHT22;2388;53.582;9.962;2022-09-13T03:15:44;16.90;99.90
4749;DHT22;2388;53.582;9.962;2022-09-13T03:21:29;16.90;99.90
4749;DHT22;2388;53.582;9.962;2022-09-13T03:32:50;16.90;99.90
4749;DHT22;2388;53.582;9.962;2022-09-13T03:38:08;16.80;99.90
4749;DHT22;2388;53.582;9.962;2022-09-13T03:40:47;16.80;99.90
4749;DHT22;2388;53.582;9.962;2022-09-13T03:43:23;16.80;99.90
4749;DHT22;2388;53.582;9.962;2022-09-13T03:45:56;16.80;99.90
4749;DHT22;2388;53.582;9.962;2022-09-13T03:48:24;16.80;99.90
4749;DHT22;2388;53.582;9.962;2022-09-13T03:50:50;16.80;99.90
4749;DHT22;2388;53.582;9.962;2022-09-13T03:53:20;16.80;99.90
4749;DHT22;2388;53.582;9.962;2022-09-13T03:55:47;16.80;99.90
4749;DHT22;2388;53.582;9.962;2022-09-13T03:58:15;16.80;99.90
4749;DHT22;2388;53.582;9.962;2022-09-13T04:00:41;16.80;99.90
4749;DHT22;2388;53.582;9.962;2022-09-13T04:03:07;16.80;99.90
4749;DHT22;2388;53.582;9.962;2022-09-13T04:05:34;16.80;99.90
4749;DHT22;2388;53.582;9.962;2022-09-13T04:08:00;16.80;99.90
4749;DHT22;2388;53.582;9.962;2022-09-13T04:10:30;16.80;99.90
4749;DHT22;2388;53.582;9.962;2022-09-13T04:12:57;16.80;99.90
4749;DHT22;2388;53.582;9.962;2022-09-13T04:15:24;16.80;99.90
4749;DHT22;2388;53.582;9.962;2022-09-13T04:17:49;16.80;99.90
4749;DHT22;2388;53.582;9.962;2022-09-13T04:20:15;16.80;99.90
4749;DHT22;2388;53.582;9.962;2022-09-13T04:22:41;16.80;99.90
4749;DHT22;2388;53.582;9.962;2022-09-13T04:25:07;16.80;99.90
4749;DHT22;2388;53.582;9.962;2022-09-13T04:27:32;16.80;99.90
4749;DHT22;2388;53.582;9.962;2022-09-13T04:30:00;16.80;99.90
4749;DHT22;2388;53.582;9.962;2022-09-13T04:32:25;16.70;99.90
4749;DHT22;2388;53.582;9.962;2022-09-13T04:34:51;16.70;99.90
4749;DHT22;2388;53.582;9.962;2022-09-13T04:37:16;16.70;99.90
4749;DHT22;2388;53.582;9.962;2022-09-13T04:39:42;16.60;99.90
4749;DHT22;2388;53.582;9.962;2022-09-13T04:42:08;16.60;99.90
4749;DHT22;2388;53.582;9.962;2022-09-13T04:44:35;16.50;99.90
4749;DHT22;2388;53.582;9.962;2022-09-13T04:47:00;16.50;99.90
4749;DHT22;2388;53.582;9.962;2022-09-13T04:49:27;16.50;99.90
4749;DHT22;2388;53.582;9.962;2022-09-13T04:51:52;16.50;99.90
4749;DHT22;2388;53.582;9.962;2022-09-13T04:54:17;16.40;99.90
4749;DHT22;2388;53.582;9.962;2022-09-13T04:56:43;16.40;99.90
4749;DHT22;2388;53.582;9.962;2022-09-13T04:59:10;16.40;99.90
4749;DHT22;2388;53.582;9.962;2022-09-13T05:01:35;16.30;99.90
4749;DHT22;2388;53.582;9.962;2022-09-13T05:04:02;16.30;99.90
4749;DHT22;2388;53.582;9.962;2022-09-13T05:06:27;16.30;99.90
4749;DHT22;2388;53.582;9.962;2022-09-13T05:08:55;16.30;99.90
4749;DHT22;2388;53.582;9.962;2022-09-13T05:11:25;16.20;99.90
4749;DHT22;2388;53.582;9.962;2022-09-13T05:13:51;16.20;99.90
4749;DHT22;2388;53.582;9.962;2022-09-13T05:16:19;16.30;99.90
4749;DHT22;2388;53.582;9.962;2022-09-13T05:18:45;16.30;99.90
4749;DHT22;2388;53.582;9.962;2022-09-13T05:21:10;16.40;99.90
4749;DHT22;2388;53.582;9.962;2022-09-13T05:23:36;16.50;99.90
4749;DHT22;2388;53.582;9.962;2022-09-13T05:26:04;16.50;99.90
4749;DHT22;2388;53.582;9.962;2022-09-13T05:28:33;16.50;99.90
4749;DHT22;2388;53.582;9.962;2022-09-13T05:33:31;16.60;99.90
4749;DHT22;2388;53.582;9.962;2022-09-13T05:35:57;16.60;99.90
4749;DHT22;2388;53.582;9.962;2022-09-13T05:38:22;16.60;99.90
4749;DHT22;2388;53.582;9.962;2022-09-13T05:40:53;16.60;99.90
4749;DHT22;2388;53.582;9.962;2022-09-13T05:43:21;16.60;99.90
4749;DHT22;2388;53.582;9.962;2022-09-13T05:45:47;16.60;99.90
4749;DHT22;2388;53.582;9.962;2022-09-13T05:48:12;16.70;99.90
4749;DHT22;2388;53.582;9.962;2022-09-13T05:50:39;16.80;99.90
4749;DHT22;2388;53.582;9.962;2022-09-13T05:53:04;16.70;99.90
4749;DHT22;2388;53.582;9.962;2022-09-13T05:55:31;16.70;99.90
4749;DHT22;2388;53.582;9.962;2022-09-13T05:57:56;16.80;99.90
4749;DHT22;2388;53.582;9.962;2022-09-13T06:00:22;16.80;99.90
4749;DHT22;2388;53.582;9.962;2022-09-13T06:02:48;16.90;99.90
4749;DHT22;2388;53.582;9.962;2022-09-13T06:05:13;16.90;99.90
4749;DHT22;2388;53.582;9.962;2022-09-13T06:07:40;16.90;99.90
4749;DHT22;2388;53.582;9.962;2022-09-13T06:10:07;16.90;99.90
4749;DHT22;2388;53.582;9.962;2022-09-13T06:12:33;16.90;99.90
4749;DHT22;2388;53.582;9.962;2022-09-13T06:14:59;17.00;99.90
4749;DHT22;2388;53.582;9.962;2022-09-13T06:17:24;17.00;99.90
4749;DHT22;2388;53.582;9.962;2022-09-13T06:19:50;16.90;99.90
4749;DHT22;2388;53.582;9.962;2022-09-13T06:22:15;16.90;99.90
4749;DHT22;2388;53.582;9.962;2022-09-13T06:24:41;16.90;99.90
4749;DHT22;2388;53.582;9.962;2022-09-13T06:27:06;17.00;99.90
4749;DHT22;2388;53.582;9.962;2022-09-13T06:29:32;17.00;99.90
4749;DHT22;2388;53.582;9.962;2022-09-13T06:31:57;17.10;99.90
4749;DHT22;2388;53.582;9.962;2022-09-13T06:34:23;17.10;99.90
4749;DHT22;2388;53.582;9.962;2022-09-13T06:36:48;17.10;99.90
4749;DHT22;2388;53.582;9.962;2022-09-13T06:39:14;17.20;99.90
4749;DHT22;2388;53.582;9.962;2022-09-13T06:41:39;17.20;99.90
4749;DHT22;2388;53.582;9.962;2022-09-13T06:44:05;17.30;99.90
4749;DHT22;2388;53.582;9.962;2022-09-13T06:46:33;17.30;99.90
4749;DHT22;2388;53.582;9.962;2022-09-13T06:49:00;17.30;99.90
4749;DHT22;2388;53.582;9.962;2022-09-13T06:51:26;17.30;99.90
4749;DHT22;2388;53.582;9.962;2022-09-13T06:53:54;17.30;99.90
4749;DHT22;2388;53.582;9.962;2022-09-13T06:56:26;17.30;99.90
4749;DHT22;2388;53.582;9.962;2022-09-13T06:58:55;17.20;99.90
4749;DHT22;2388;53.582;9.962;2022-09-13T07:01:28;17.20;99.90
4749;DHT22;2388;53.582;9.962;2022-09-13T07:04:05;17.20;99.90
4749;DHT22;2388;53.582;9.962;2022-09-13T07:06:51;17.20;99.90
4749;DHT22;2388;53.582;9.962;2022-09-13T07:09:19;17.20;99.90
4749;DHT22;2388;53.582;9.962;2022-09-13T07:11:47;17.20;99.90
4749;DHT22;2388;53.582;9.962;2022-09-13T07:14:15;17.30;99.90
4749;DHT22;2388;53.582;9.962;2022-09-13T07:16:41;17.20;99.90
4749;DHT22;2388;53.582;9.962;2022-09-13T07:19:12;17.30;99.90
4749;DHT22;2388;53.582;9.962;2022-09-13T07:21:38;17.30;99.90
4749;DHT22;2388;53.582;9.962;2022-09-13T07:24:03;17.30;99.90
4749;DHT22;2388;53.582;9.962;2022-09-13T07:26:29;17.30;99.90
4749;DHT22;2388;53.582;9.962;2022-09-13T07:28:58;17.30;99.90
4749;DHT22;2388;53.582;9.962;2022-09-13T07:31:25;17.40;99.90
4749;DHT22;2388;53.582;9.962;2022-09-13T07:33:58;17.30;99.90
4749;DHT22;2388;53.582;9.962;2022-09-13T07:36:24;17.30;99.90
4749;DHT22;2388;53.582;9.962;2022-09-13T07:38:50;17.30;99.90
4749;DHT22;2388;53.582;9.962;2022-09-13T07:41:17;17.30;99.90
4749;DHT22;2388;53.582;9.962;2022-09-13T07:43:44;17.40;99.90
4749;DHT22;2388;53.582;9.962;2022-09-13T07:46:12;17.50;99.90
4749;DHT22;2388;53.582;9.962;2022-09-13T07:48:40;17.60;99.90
4749;DHT22;2388;53.582;9.962;2022-09-13T07:51:08;17.60;99.90
4749;DHT22;2388;53.582;9.962;2022-09-13T07:53:35;17.70;99.90
4749;DHT22;2388;53.582;9.962;2022-09-13T07:56:06;17.80;99.90
4749;DHT22;2388;53.582;9.962;2022-09-13T07:58:33;17.80;99.90
4749;DHT22;2388;53.582;9.962;2022-09-13T08:01:13;17.80;99.90
4749;DHT22;2388;53.582;9.962;2022-09-13T08:03:39;17.90;99.90
4749;DHT22;2388;53.582;9.962;2022-09-13T08:06:06;17.90;99.90
4749;DHT22;2388;53.582;9.962;2022-09-13T08:08:33;18.00;99.90
4749;DHT22;2388;53.582;9.962;2022-09-13T08:10:59;18.00;99.90
4749;DHT22;2388;53.582;9.962;2022-09-13T08:13:26;18.00;99.90
4749;DHT22;2388;53.582;9.962;2022-09-13T08:15:53;18.00;99.90
4749;DHT22;2388;53.582;9.962;2022-09-13T08:18:19;18.10;99.90
4749;DHT22;2388;53.582;9.962;2022-09-13T08:20:44;18.10;99.90
4749;DHT22;2388;53.582;9.962;2022-09-13T08:23:11;18.10;99.90
4749;DHT22;2388;53.582;9.962;2022-09-13T08:25:37;18.20;99.90
4749;DHT22;2388;53.582;9.962;2022-09-13T08:28:09;18.20;99.90
4749;DHT22;2388;53.582;9.962;2022-09-13T08:30:36;18.20;99.90
4749;DHT22;2388;53.582;9.962;2022-09-13T08:33:03;18.20;99.90
4749;DHT22;2388;53.582;9.962;2022-09-13T08:35:29;18.20;99.90
4749;DHT22;2388;53.582;9.962;2022-09-13T08:37:55;18.20;99.90
4749;DHT22;2388;53.582;9.962;2022-09-13T08:40:21;18.20;99.90
4749;DHT22;2388;53.582;9.962;2022-09-13T08:43:01;18.20;99.90
4749;DHT22;2388;53.582;9.962;2022-09-13T08:45:29;18.20;99.90
4749;DHT22;2388;53.582;9.962;2022-09-13T08:47:55;18.30;99.90
4749;DHT22;2388;53.582;9.962;2022-09-13T08:50:27;18.30;99.90
4749;DHT22;2388;53.582;9.962;2022-09-13T08:58:47;18.30;99.90
4749;DHT22;2388;53.582;9.962;2022-09-13T09:01:24;18.30;99.90
4749;DHT22;2388;53.582;9.962;2022-09-13T09:06:28;18.40;99.90
4749;DHT22;2388;53.582;9.962;2022-09-13T09:09:06;18.40;99.90
4749;DHT22;2388;53.582;9.962;2022-09-13T09:11:53;18.40;99.90
4749;DHT22;2388;53.582;9.962;2022-09-13T09:14:29;18.40;99.90
4749;DHT22;2388;53.582;9.962;2022-09-13T09:17:02;18.40;99.90
4749;DHT22;2388;53.582;9.962;2022-09-13T09:19:30;18.50;99.90
4749;DHT22;2388;53.582;9.962;2022-09-13T09:22:01;18.40;99.90
4749;DHT22;2388;53.582;9.962;2022-09-13T09:24:31;18.50;99.90
4749;DHT22;2388;53.582;9.962;2022-09-13T09:26:58;18.40;99.90
4749;DHT22;2388;53.582;9.962;2022-09-13T09:29:28;18.40;99.90
4749;DHT22;2388;53.582;9.962;2022-09-13T09:32:06;18.40;99.90
4749;DHT22;2388;53.582;9.962;2022-09-13T09:35:03;18.50;99.90
4749;DHT22;2388;53.582;9.962;2022-09-13T09:37:33;18.50;99.90
4749;DHT22;2388;53.582;9.962;2022-09-13T09:40:03;18.50;99.90
4749;DHT22;2388;53.582;9.962;2022-09-13T09:42:44;18.60;99.90
4749;DHT22;2388;53.582;9.962;2022-09-13T09:45:32;18.70;99.90
4749;DHT22;2388;53.582;9.962;2022-09-13T09:48:01;18.70;99.90
4749;DHT22;2388;53.582;9.962;2022-09-13T09:50:32;18.70;99.90
4749;DHT22;2388;53.582;9.962;2022-09-13T09:53:13;18.80;99.90
4749;DHT22;2388;53.582;9.962;2022-09-13T09:56:24;18.80;99.90
4749;DHT22;2388;53.582;9.962;2022-09-13T09:58:42;18.80;99.90
4749;DHT22;2388;53.582;9.962;2022-09-13T10:04:18;18.80;99.90
4749;DHT22;2388;53.582;9.962;2022-09-13T10:06:44;18.70;99.90
4749;DHT22;2388;53.582;9.962;2022-09-13T10:11:52;18.70;99.90
4749;DHT22;2388;53.582;9.962;2022-09-13T10:17:23;18.80;99.90
4749;DHT22;2388;53.582;9.962;2022-09-13T10:20:00;18.90;99.90
4749;DHT22;2388;53.582;9.962;2022-09-13T10:22:32;18.90;99.90
4749;DHT22;2388;53.582;9.962;2022-09-13T10:25:13;18.90;99.90
4749;DHT22;2388;53.582;9.962;2022-09-13T10:27:41;18.90;99.90
4749;DHT22;2388;53.582;9.962;2022-09-13T10:30:37;19.00;99.90
4749;DHT22;2388;53.582;9.962;2022-09-13T10:33:04;19.10;99.90
4749;DHT22;2388;53.582;9.962;2022-09-13T10:35:30;19.10;99.90
4749;DHT22;2388;53.582;9.962;2022-09-13T10:37:56;19.20;99.90
4749;DHT22;2388;53.582;9.962;2022-09-13T10:40:30;19.20;99.90
4749;DHT22;2388;53.582;9.962;2022-09-13T10:43:11;19.20;99.90
4749;DHT22;2388;53.582;9.962;2022-09-13T10:45:40;19.10;99.90
4749;DHT22;2388;53.582;9.962;2022-09-13T10:48:15;19.10;99.90
4749;DHT22;2388;53.582;9.962;2022-09-13T10:51:03;19.00;99.90
4749;DHT22;2388;53.582;9.962;2022-09-13T10:53:38;19.10;99.90
4749;DHT22;2388;53.582;9.962;2022-09-13T10:56:07;19.30;99.90
4749;DHT22;2388;53.582;9.962;2022-09-13T10:58:42;19.40;99.90
4749;DHT22;2388;53.582;9.962;2022-09-13T11:03:58;19.60;99.90
4749;DHT22;2388;53.582;9.962;2022-09-13T11:10:00;19.50;99.90
4749;DHT22;2388;53.582;9.962;2022-09-13T11:12:49;19.50;99.90
4749;DHT22;2388;53.582;9.962;2022-09-13T11:20:52;19.50;99.90
4749;DHT22;2388;53.582;9.962;2022-09-13T11:26:20;19.50;99.90
4749;DHT22;2388;53.582;9.962;2022-09-13T11:29:06;19.50;99.90
4749;DHT22;2388;53.582;9.962;2022-09-13T11:31:46;19.50;99.90
4749;DHT22;2388;53.582;9.962;2022-09-13T11:37:44;19.50;99.90
4749;DHT22;2388;53.582;9.962;2022-09-13T11:40:37;19.60;99.90
4749;DHT22;2388;53.582;9.962;2022-09-13T11:43:32;19.60;99.90
4749;DHT22;2388;53.582;9.962;2022-09-13T11:46:13;19.60;99.90
4749;DHT22;2388;53.582;9.962;2022-09-13T11:54:17;19.60;99.90
4749;DHT22;2388;53.582;9.962;2022-09-13T11:56:54;19.50;99.90
4749;DHT22;2388;53.582;9.962;2022-09-13T11:59:46;19.50;99.70
4749;DHT22;2388;53.582;9.962;2022-09-13T12:02:23;19.50;99.90
4749;DHT22;2388;53.582;9.962;2022-09-13T12:05:02;19.60;99.90
4749;DHT22;2388;53.582;9.962;2022-09-13T12:12:40;19.70;99.90
4749;DHT22;2388;53.582;9.962;2022-09-13T12:15:14;19.70;99.90
4749;DHT22;2388;53.582;9.962;2022-09-13T12:17:43;19.80;99.90
4749;DHT22;2388;53.582;9.962;2022-09-13T12:23:05;19.90;99.70
4749;DHT22;2388;53.582;9.962;2022-09-13T12:25:54;19.90;99.90
4749;DHT22;2388;53.582;9.962;2022-09-13T12:28:26;19.90;99.90
4749;DHT22;2388;53.582;9.962;2022-09-13T12:31:13;19.90;99.90
4749;DHT22;2388;53.582;9.962;2022-09-13T12:33:41;19.90;99.90
4749;DHT22;2388;53.582;9.962;2022-09-13T12:42:09;20.00;99.90
4749;DHT22;2388;53.582;9.962;2022-09-13T12:47:32;20.10;99.90
4749;DHT22;2388;53.582;9.962;2022-09-13T12:55:34;20.10;99.90
4749;DHT22;2388;53.582;9.962;2022-09-13T13:01:13;20.00;99.90
4749;DHT22;2388;53.582;9.962;2022-09-13T13:03:50;20.20;99.90
4749;DHT22;2388;53.582;9.962;2022-09-13T13:06:51;20.30;99.90
4749;DHT22;2388;53.582;9.962;2022-09-13T13:09:40;20.50;99.90
4749;DHT22;2388;53.582;9.962;2022-09-13T13:12:08;20.80;99.90
4749;DHT22;2388;53.582;9.962;2022-09-13T13:23:30;20.70;99.90
4749;DHT22;2388;53.582;9.962;2022-09-13T13:26:09;20.60;99.90
4749;DHT22;2388;53.582;9.962;2022-09-13T13:31:08;20.40;99.90
4749;DHT22;2388;53.582;9.962;2022-09-13T13:36:29;20.30;99.90
4749;DHT22;2388;53.582;9.962;2022-09-13T13:39:01;20.30;99.90
4749;DHT22;2388;53.582;9.962;2022-09-13T13:46:48;20.10;99.90
4749;DHT22;2388;53.582;9.962;2022-09-13T13:55:38;19.90;99.90
4749;DHT22;2388;53.582;9.962;2022-09-13T13:58:26;19.90;99.90
4749;DHT22;2388;53.582;9.962;2022-09-13T14:00:54;19.90;99.90
4749;DHT22;2388;53.582;9.962;2022-09-13T14:03:34;19.80;99.90
4749;DHT22;2388;53.582;9.962;2022-09-13T14:06:36;19.90;99.90
4749;DHT22;2388;53.582;9.962;2022-09-13T14:19:52;19.80;99.90
4749;DHT22;2388;53.582;9.962;2022-09-13T14:22:26;19.90;99.90
4749;DHT22;2388;53.582;9.962;2022-09-13T14:24:55;19.90;99.90
4749;DHT22;2388;53.582;9.962;2022-09-13T14:27:30;19.80;99.90
4749;DHT22;2388;53.582;9.962;2022-09-13T14:30:02;19.80;99.90
4749;DHT22;2388;53.582;9.962;2022-09-13T14:32:31;19.80;99.90
4749;DHT22;2388;53.582;9.962;2022-09-13T14:35:03;19.80;99.90
4749;DHT22;2388;53.582;9.962;2022-09-13T14:37:35;19.80;99.90
4749;DHT22;2388;53.582;9.962;2022-09-13T14:42:41;19.70;99.90
4749;DHT22;2388;53.582;9.962;2022-09-13T14:45:14;19.70;99.90
4749;DHT22;2388;53.582;9.962;2022-09-13T14:47:49;19.70;99.90
4749;DHT22;2388;53.582;9.962;2022-09-13T14:50:24;19.70;99.90
4749;DHT22;2388;53.582;9.962;2022-09-13T14:53:00;19.60;99.90
4749;DHT22;2388;53.582;9.962;2022-09-13T14:55:33;19.60;99.90
4749;DHT22;2388;53.582;9.962;2022-09-13T14:58:06;19.60;99.90
4749;DHT22;2388;53.582;9.962;2022-09-13T15:00:47;19.60;99.90
4749;DHT22;2388;53.582;9.962;2022-09-13T15:03:15;19.70;99.90
4749;DHT22;2388;53.582;9.962;2022-09-13T15:05:50;19.70;99.90
4749;DHT22;2388;53.582;9.962;2022-09-13T15:11:03;19.50;99.90
4749;DHT22;2388;53.582;9.962;2022-09-13T15:13:29;19.50;99.90
4749;DHT22;2388;53.582;9.962;2022-09-13T15:15:55;19.50;99.90
4749;DHT22;2388;53.582;9.962;2022-09-13T15:18:31;19.50;99.90
4749;DHT22;2388;53.582;9.962;2022-09-13T15:21:04;19.50;99.90
4749;DHT22;2388;53.582;9.962;2022-09-13T15:23:38;19.40;99.90
4749;DHT22;2388;53.582;9.962;2022-09-13T15:26:20;19.40;99.90
4749;DHT22;2388;53.582;9.962;2022-09-13T15:31:34;19.40;99.90
4749;DHT22;2388;53.582;9.962;2022-09-13T15:37:06;19.30;99.90
4749;DHT22;2388;53.582;9.962;2022-09-13T15:39:43;19.30;99.90
4749;DHT22;2388;53.582;9.962;2022-09-13T15:42:09;19.30;99.90
4749;DHT22;2388;53.582;9.962;2022-09-13T15:44:34;19.30;99.90
4749;DHT22;2388;53.582;9.962;2022-09-13T15:47:01;19.20;99.90
4749;DHT22;2388;53.582;9.962;2022-09-13T15:49:29;19.20;99.90
4749;DHT22;2388;53.582;9.962;2022-09-13T15:51:58;19.10;99.90
4749;DHT22;2388;53.582;9.962;2022-09-13T15:54:38;19.10;99.90
4749;DHT22;2388;53.582;9.962;2022-09-13T15:57:15;19.00;99.90
4749;DHT22;2388;53.582;9.962;2022-09-13T15:59:41;19.00;99.90
4749;DHT22;2388;53.582;9.962;2022-09-13T16:02:27;18.90;99.90
4749;DHT22;2388;53.582;9.962;2022-09-13T16:04:54;18.90;99.90
4749;DHT22;2388;53.582;9.962;2022-09-13T16:07:20;18.90;99.90
4749;DHT22;2388;53.582;9.962;2022-09-13T16:09:46;18.90;99.90
4749;DHT22;2388;53.582;9.962;2022-09-13T16:12:12;18.80;99.90
4749;DHT22;2388;53.582;9.962;2022-09-13T16:14:38;18.80;99.90
4749;DHT22;2388;53.582;9.962;2022-09-13T16:17:13;18.80;99.90
4749;DHT22;2388;53.582;9.962;2022-09-13T16:19:40;18.80;99.90
4749;DHT22;2388;53.582;9.962;2022-09-13T16:22:05;18.80;99.90
4749;DHT22;2388;53.582;9.962;2022-09-13T16:24:31;18.80;99.90
4749;DHT22;2388;53.582;9.962;2022-09-13T16:26:59;18.70;99.90
4749;DHT22;2388;53.582;9.962;2022-09-13T16:29:26;18.70;99.90
4749;DHT22;2388;53.582;9.962;2022-09-13T16:31:51;18.70;99.90
4749;DHT22;2388;53.582;9.962;2022-09-13T16:34:17;18.70;99.90
4749;DHT22;2388;53.582;9.962;2022-09-13T16:36:42;18.70;99.90
4749;DHT22;2388;53.582;9.962;2022-09-13T16:39:08;18.60;99.90
4749;DHT22;2388;53.582;9.962;2022-09-13T16:41:33;18.60;99.90
4749;DHT22;2388;53.582;9.962;2022-09-13T16:43:59;18.60;99.90
4749;DHT22;2388;53.582;9.962;2022-09-13T16:46:26;18.60;99.90
4749;DHT22;2388;53.582;9.962;2022-09-13T16:48:53;18.50;99.90
4749;DHT22;2388;53.582;9.962;2022-09-13T16:51:19;18.50;99.90
4749;DHT22;2388;53.582;9.962;2022-09-13T16:53:45;18.50;99.90
4749;DHT22;2388;53.582;9.962;2022-09-13T16:56:15;18.40;99.90
4749;DHT22;2388;53.582;9.962;2022-09-13T16:58:43;18.30;99.90
4749;DHT22;2388;53.582;9.962;2022-09-13T17:01:11;18.30;99.90
4749;DHT22;2388;53.582;9.962;2022-09-13T17:03:37;18.30;99.90
4749;DHT22;2388;53.582;9.962;2022-09-13T17:06:06;18.30;99.90
4749;DHT22;2388;53.582;9.962;2022-09-13T17:08:33;18.30;99.90
4749;DHT22;2388;53.582;9.962;2022-09-13T17:11:00;18.20;99.90
4749;DHT22;2388;53.582;9.962;2022-09-13T17:13:28;18.20;99.90
4749;DHT22;2388;53.582;9.962;2022-09-13T17:15:54;18.20;99.90
4749;DHT22;2388;53.582;9.962;2022-09-13T17:18:19;18.20;99.90
4749;DHT22;2388;53.582;9.962;2022-09-13T17:20:47;18.20;99.90
4749;DHT22;2388;53.582;9.962;2022-09-13T17:23:13;18.10;99.90
4749;DHT22;2388;53.582;9.962;2022-09-13T17:25:40;18.20;99.90
4749;DHT22;2388;53.582;9.962;2022-09-13T17:28:07;18.10;99.90
4749;DHT22;2388;53.582;9.962;2022-09-13T17:30:33;18.10;99.90
4749;DHT22;2388;53.582;9.962;2022-09-13T17:32:58;18.10;99.90
4749;DHT22;2388;53.582;9.962;2022-09-13T17:35:24;18.10;99.90
4749;DHT22;2388;53.582;9.962;2022-09-13T17:37:49;18.00;99.90
4749;DHT22;2388;53.582;9.962;2022-09-13T17:40:15;18.00;99.90
4749;DHT22;2388;53.582;9.962;2022-09-13T17:42:41;18.00;99.90
4749;DHT22;2388;53.582;9.962;2022-09-13T17:45:07;18.00;99.90
4749;DHT22;2388;53.582;9.962;2022-09-13T17:47:32;18.00;99.90
4749;DHT22;2388;53.582;9.962;2022-09-13T17:49:58;17.90;99.90
4749;DHT22;2388;53.582;9.962;2022-09-13T17:52:23;17.90;99.90
4749;DHT22;2388;53.582;9.962;2022-09-13T17:54:49;17.90;99.90
4749;DHT22;2388;53.582;9.962;2022-09-13T17:57:14;17.80;99.90
4749;DHT22;2388;53.582;9.962;2022-09-13T17:59:40;17.80;99.90
4749;DHT22;2388;53.582;9.962;2022-09-13T18:02:05;17.80;99.90
4749;DHT22;2388;53.582;9.962;2022-09-13T18:04:31;17.80;99.90
4749;DHT22;2388;53.582;9.962;2022-09-13T18:06:57;17.70;99.90
4749;DHT22;2388;53.582;9.962;2022-09-13T18:09:22;17.70;99.90
4749;DHT22;2388;53.582;9.962;2022-09-13T18:11:49;17.60;99.90
4749;DHT22;2388;53.582;9.962;2022-09-13T18:14:16;17.60;99.90
4749;DHT22;2388;53.582;9.962;2022-09-13T18:16:42;17.60;99.90
4749;DHT22;2388;53.582;9.962;2022-09-13T18:19:08;17.60;99.90
4749;DHT22;2388;53.582;9.962;2022-09-13T18:21:34;17.60;99.90
4749;DHT22;2388;53.582;9.962;2022-09-13T18:24:00;17.50;99.90
4749;DHT22;2388;53.582;9.962;2022-09-13T18:26:29;17.50;99.90
4749;DHT22;2388;53.582;9.962;2022-09-13T18:28:58;17.50;99.90
4749;DHT22;2388;53.582;9.962;2022-09-13T18:31:26;17.50;99.90
4749;DHT22;2388;53.582;9.962;2022-09-13T18:33:54;17.50;99.90
4749;DHT22;2388;53.582;9.962;2022-09-13T18:36:21;17.50;99.90
4749;DHT22;2388;53.582;9.962;2022-09-13T18:38:47;17.60;99.90
4749;DHT22;2388;53.582;9.962;2022-09-13T18:41:17;17.50;99.90
4749;DHT22;2388;53.582;9.962;2022-09-13T18:43:44;17.50;99.90
4749;DHT22;2388;53.582;9.962;2022-09-13T18:46:12;17.50;99.90
4749;DHT22;2388;53.582;9.962;2022-09-13T18:48:40;17.50;99.90
4749;DHT22;2388;53.582;9.962;2022-09-13T18:51:11;17.50;99.90
4749;DHT22;2388;53.582;9.962;2022-09-13T18:53:37;17.50;99.90
4749;DHT22;2388;53.582;9.962;2022-09-13T18:56:05;17.50;99.90
4749;DHT22;2388;53.582;9.962;2022-09-13T18:58:32;17.50;99.90
4749;DHT22;2388;53.582;9.962;2022-09-13T19:01:03;17.50;99.90
4749;DHT22;2388;53.582;9.962;2022-09-13T19:03:29;17.50;99.90
4749;DHT22;2388;53.582;9.962;2022-09-13T19:06:17;17.40;99.90
4749;DHT22;2388;53.582;9.962;2022-09-13T19:08:43;17.40;99.90
4749;DHT22;2388;53.582;9.962;2022-09-13T19:11:09;17.40;99.90